Time;durP1;ratioP1;P1;durP2;ratioP2;P2;SDS_P1;SDS_P2;PMS_P1;PMS_P2;Temp;Humidity;BMP_temperature;BMP_pressure;BME280_temperature;BME280_humidity;BME280_pressure;Samples;Min_cycle;Max_cycle;Signal;HPM_P1;HPM_P2
2022/05/10 00:01:55;;;;;;;15.73;8.20;;;;;;;39.29;42.84;101053.13;5012477;28;20932;-72
2022/05/10 00:04:21;;;;;;;22.87;8.70;;;;;;;39.17;43.16;101053.69;5012397;28;20432;-72
2022/05/10 00:06:49;;;;;;;16.30;8.10;;;;;;;39.23;42.71;101062.50;5012219;28;20424;-73
2022/05/10 00:09:20;;;;;;;17.60;8.70;;;;;;;39.12;42.86;101063.84;5012654;28;20429;-73
2022/05/10 00:11:47;;;;;;;23.97;7.63;;;;;;;38.95;43.55;101067.22;5013323;28;20455;-74
2022/05/10 00:14:13;;;;;;;19.13;8.23;;;;;;;38.81;44.03;101069.19;5013344;28;20909;-73
2022/05/10 00:16:42;;;;;;;17.13;7.63;;;;;;;38.94;43.70;101068.34;5012067;28;20463;-73
2022/05/10 00:19:14;;;;;;;18.50;9.37;;;;;;;39.10;43.28;101057.91;5012090;28;20519;-75
2022/05/10 00:21:41;;;;;;;19.93;7.30;;;;;;;39.08;43.43;101066.34;5028420;28;20400;-74
2022/05/10 00:24:08;;;;;;;15.60;9.43;;;;;;;39.22;43.05;101058.16;5012210;28;20452;-74
2022/05/10 00:26:34;;;;;;;12.80;8.63;;;;;;;38.77;44.10;101060.88;5011966;28;20447;-72
2022/05/10 00:29:01;;;;;;;16.70;10.20;;;;;;;38.75;43.71;101048.75;5011825;28;20432;-72
2022/05/10 00:31:28;;;;;;;20.00;12.50;;;;;;;38.67;43.95;101037.50;4995491;28;20484;-75
2022/05/10 00:33:54;;;;;;;29.87;12.20;;;;;;;38.65;44.18;101038.88;4995505;28;20419;-75
2022/05/10 00:36:23;;;;;;;21.30;11.67;;;;;;;38.60;44.33;101030.88;5012128;28;20424;-75
2022/05/10 00:38:50;;;;;;;17.10;12.47;;;;;;;38.42;44.75;101029.91;5011959;28;20436;-75
2022/05/10 00:41:58;;;;;;;22.80;13.27;;;;;;;38.40;44.61;101013.16;5011642;28;20979;-73
2022/05/10 00:44:32;;;;;;;22.67;13.20;;;;;;;38.04;45.31;101016.63;5020326;28;20447;-74
2022/05/10 00:47:09;;;;;;;17.83;12.87;;;;;;;38.23;44.94;101012.97;4996061;28;20440;-74
2022/05/10 00:49:43;;;;;;;17.60;11.40;;;;;;;38.48;44.80;101017.84;4995815;28;20459;-74
2022/05/10 00:52:36;;;;;;;16.53;10.70;;;;;;;38.62;43.99;101002.38;5011505;28;20462;-72
2022/05/10 00:55:27;;;;;;;22.00;12.30;;;;;;;38.69;44.28;101010.88;4997977;28;20420;-74
2022/05/10 00:58:25;;;;;;;18.10;13.07;;;;;;;38.79;44.02;100995.47;5011287;28;20883;-74
2022/05/10 01:00:54;;;;;;;22.40;14.37;;;;;;;38.74;43.97;100999.13;5002342;28;20538;-74
2022/05/10 01:03:27;;;;;;;27.03;14.07;;;;;;;38.69;43.93;100981.03;5010967;28;20435;-73
2022/05/10 01:06:03;;;;;;;29.83;16.80;;;;;;;38.57;44.08;100985.41;5011156;28;20448;-73
2022/05/10 01:08:48;;;;;;;24.23;12.73;;;;;;;38.60;44.27;100990.22;5011551;28;20425;-72
2022/05/10 01:11:21;;;;;;;21.77;13.67;;;;;;;38.77;43.81;100981.44;5010821;28;20460;-75
2022/05/10 01:14:07;;;;;;;18.60;13.57;;;;;;;38.84;43.69;100971.75;5011199;28;20427;-75
2022/05/10 01:16:33;;;;;;;28.00;14.60;;;;;;;38.84;43.57;100973.66;5011152;28;20815;-75
2022/05/10 01:18:59;;;;;;;15.23;11.27;;;;;;;38.55;44.17;100964.06;5010116;28;20421;-74
2022/05/10 01:21:45;;;;;;;21.93;11.87;;;;;;;38.62;43.98;100972.53;5012422;28;20877;-72
2022/05/10 01:24:32;;;;;;;23.43;13.03;;;;;;;38.43;44.34;100969.22;4991313;28;20452;-72
2022/05/10 01:27:16;;;;;;;25.10;14.63;;;;;;;38.46;44.28;100965.06;5010876;28;20450;-74
2022/05/10 01:29:52;;;;;;;25.83;16.30;;;;;;;38.30;44.64;100962.72;5010900;28;21047;-74
2022/05/10 01:35:42;;;;;;;28.23;15.47;;;;;;;37.75;45.79;100954.69;4998120;28;20427;-74
2022/05/10 01:38:25;;;;;;;31.00;15.70;;;;;;;37.89;45.43;100947.34;5010770;28;20424;-74
2022/05/10 01:40:57;;;;;;;33.57;15.53;;;;;;;38.08;45.07;100930.16;5010752;28;20967;-75
2022/05/10 01:43:29;;;;;;;25.63;15.43;;;;;;;37.85;46.01;100926.59;5010661;28;20462;-74
2022/05/10 01:46:02;;;;;;;33.17;18.13;;;;;;;37.95;45.48;100929.09;5010787;28;20455;-74
2022/05/10 01:48:35;;;;;;;26.13;15.57;;;;;;;38.00;45.32;100922.75;5010643;28;20503;-74
2022/05/10 01:51:25;;;;;;;26.33;14.40;;;;;;;38.04;45.35;100927.25;5010668;28;20468;-74
2022/05/10 01:53:51;;;;;;;26.03;16.73;;;;;;;37.76;45.75;100920.28;5010320;28;20435;-74
2022/05/10 01:56:21;;;;;;;20.90;14.27;;;;;;;37.44;46.85;100915.78;5010833;28;20466;-75
2022/05/10 01:58:48;;;;;;;25.30;16.77;;;;;;;37.60;46.56;100917.09;4994772;28;20424;-74
2022/05/10 02:01:17;;;;;;;19.13;13.47;;;;;;;37.72;46.04;100913.84;5010808;28;20393;-74
2022/05/10 02:03:52;;;;;;;20.23;16.00;;;;;;;37.86;45.81;100907.34;5010472;28;20432;-75
2022/05/10 02:06:27;;;;;;;25.27;15.77;;;;;;;38.01;45.65;100903.50;5010659;28;20932;-72
2022/05/10 02:09:06;;;;;;;27.40;18.33;;;;;;;38.13;45.53;100892.13;5011792;28;20407;-75
2022/05/10 02:11:39;;;;;;;30.13;15.70;;;;;;;38.36;44.72;100895.66;4994204;28;20823;-74
2022/05/10 02:14:10;;;;;;;24.50;17.27;;;;;;;37.88;45.85;100890.81;5010375;28;20416;-74
2022/05/10 02:16:45;;;;;;;23.03;16.63;;;;;;;38.03;45.70;100884.22;5010448;28;20826;-74
2022/05/10 02:19:24;;;;;;;30.10;15.43;;;;;;;37.89;45.96;100868.03;5010521;28;20826;-75
2022/05/10 02:22:07;;;;;;;28.93;16.33;;;;;;;37.76;45.79;100863.44;5010200;28;20418;-74
2022/05/10 02:24:38;;;;;;;28.30;15.53;;;;;;;37.57;46.61;100860.88;5012657;28;20485;-74
2022/05/10 02:27:11;;;;;;;32.97;17.53;;;;;;;37.80;46.31;100850.88;5014109;28;20424;-74
2022/05/10 02:30:03;;;;;;;27.63;16.67;;;;;;;37.81;45.86;100857.91;5014217;28;20433;-73
2022/05/10 02:33:07;;;;;;;30.30;15.80;;;;;;;37.85;45.90;100848.88;5013950;28;20492;-73
2022/05/10 02:35:55;;;;;;;29.70;16.33;;;;;;;37.79;46.03;100827.59;5014148;28;21046;-73
2022/05/10 02:38:34;;;;;;;29.87;16.63;;;;;;;37.74;45.96;100825.00;5014019;28;20424;-74
2022/05/10 02:41:09;;;;;;;24.87;15.00;;;;;;;37.74;45.85;100825.81;5013964;28;20466;-75
2022/05/10 02:43:46;;;;;;;26.60;13.93;;;;;;;37.76;46.18;100818.19;5014013;28;20534;-74
2022/05/10 02:46:13;;;;;;;29.27;16.23;;;;;;;37.81;46.22;100820.00;5013841;28;20430;-74
2022/05/10 02:48:39;;;;;;;23.87;15.50;;;;;;;37.63;46.24;100814.44;5013804;28;20424;-74
2022/05/10 02:51:06;;;;;;;20.47;13.87;;;;;;;37.72;46.03;100803.66;5013617;28;20785;-74
2022/05/10 02:53:32;;;;;;;19.77;14.67;;;;;;;37.82;45.70;100800.78;5013680;28;20428;-74
2022/05/10 02:56:09;;;;;;;33.30;15.07;;;;;;;37.71;45.92;100798.56;5013792;28;20431;-75
2022/05/10 02:58:37;;;;;;;22.33;13.60;;;;;;;37.79;45.79;100806.75;5014938;28;20405;-75
2022/05/10 03:01:15;;;;;;;21.03;13.27;;;;;;;37.81;46.07;100804.59;5013642;28;20416;-73
2022/05/10 03:03:41;;;;;;;23.63;15.60;;;;;;;37.64;46.51;100805.22;5013144;28;20420;-74
2022/05/10 03:06:08;;;;;;;21.70;14.70;;;;;;;37.57;46.75;100799.41;5013507;28;20412;-73
2022/05/10 03:08:34;;;;;;;27.43;15.60;;;;;;;37.47;46.47;100798.84;5013448;28;20427;-75
2022/05/10 03:11:00;;;;;;;21.27;14.33;;;;;;;37.47;46.58;100810.47;5013240;28;20455;-74
2022/05/10 03:13:26;;;;;;;22.67;13.40;;;;;;;37.39;47.29;100803.06;5013377;28;20424;-73
2022/05/10 03:15:52;;;;;;;22.67;11.53;;;;;;;37.62;46.50;100806.59;5013224;28;20463;-75
2022/05/10 03:18:18;;;;;;;18.80;14.40;;;;;;;37.80;46.11;100812.97;5013292;28;20803;-75
2022/05/10 03:20:45;;;;;;;28.03;14.10;;;;;;;37.78;46.42;100812.47;5013314;28;20427;-73
2022/05/10 03:23:11;;;;;;;21.23;13.70;;;;;;;37.61;46.76;100813.91;5014173;28;20443;-73
2022/05/10 03:25:37;;;;;;;28.37;14.73;;;;;;;36.89;48.44;100816.47;5013156;28;20504;-73
2022/05/10 03:28:03;;;;;;;32.70;17.67;;;;;;;37.11;48.08;100813.88;5012959;28;20952;-73
2022/05/10 03:30:30;;;;;;;25.87;15.50;;;;;;;37.30;47.46;100810.25;5012840;28;20502;-73
2022/05/10 03:32:57;;;;;;;16.23;12.43;;;;;;;37.33;47.41;100806.97;5013776;28;20490;-72
2022/05/10 03:35:24;;;;;;;24.03;15.87;;;;;;;37.43;47.16;100814.06;5012591;28;20416;-73
2022/05/10 03:37:50;;;;;;;20.13;13.77;;;;;;;37.52;47.07;100815.75;5012729;28;20459;-73
2022/05/10 03:40:16;;;;;;;24.00;15.43;;;;;;;37.54;46.72;100824.38;5012880;28;20416;-72
2022/05/10 03:42:50;;;;;;;25.87;17.37;;;;;;;37.58;46.69;100825.38;5012823;28;20437;-73
2022/05/10 03:45:18;;;;;;;23.60;15.50;;;;;;;37.66;46.41;100831.97;5012549;28;20572;-73
2022/05/10 03:47:46;;;;;;;25.60;17.20;;;;;;;37.36;46.92;100830.72;5012704;28;20429;-73
2022/05/10 03:50:13;;;;;;;20.60;15.73;;;;;;;37.47;46.86;100834.81;5012671;28;20523;-75
2022/05/10 03:52:41;;;;;;;24.00;18.77;;;;;;;37.54;47.12;100843.31;5013018;28;20572;-74
2022/05/10 03:55:10;;;;;;;34.10;15.97;;;;;;;37.35;47.59;100846.16;5012303;28;20511;-75
2022/05/10 03:57:36;;;;;;;29.00;16.87;;;;;;;37.53;47.10;100843.63;5012467;28;20420;-74
2022/05/10 04:00:05;;;;;;;23.83;14.20;;;;;;;37.78;46.18;100850.38;5012788;28;20482;-73
2022/05/10 04:02:31;;;;;;;19.93;13.50;;;;;;;37.86;45.94;100855.88;5012259;28;20445;-75
2022/05/10 04:04:57;;;;;;;26.23;15.80;;;;;;;37.79;46.43;100850.06;5012459;28;20883;-72
2022/05/10 04:07:23;;;;;;;27.80;16.90;;;;;;;37.85;45.88;100859.72;5012414;28;20863;-74
2022/05/10 04:09:50;;;;;;;25.73;14.17;;;;;;;37.82;45.93;100864.94;5012343;28;20869;-74
2022/05/10 04:12:16;;;;;;;30.40;15.50;;;;;;;37.86;46.09;100872.13;5012231;28;20468;-74
2022/05/10 04:14:42;;;;;;;18.40;14.97;;;;;;;37.91;45.91;100873.94;5012556;28;20439;-74
2022/05/10 04:17:08;;;;;;;21.07;13.00;;;;;;;37.88;45.51;100878.06;5012183;28;20498;-75
2022/05/10 04:19:34;;;;;;;18.80;12.93;;;;;;;38.00;45.61;100882.94;5012212;28;20436;-72
2022/05/10 04:22:00;;;;;;;20.40;15.30;;;;;;;37.90;46.21;100880.47;5011856;28;20899;-75
2022/05/10 04:24:26;;;;;;;21.60;15.60;;;;;;;38.04;45.75;100894.75;5012046;28;20431;-73
2022/05/10 04:26:52;;;;;;;20.70;13.73;;;;;;;38.04;45.76;100899.38;5011824;28;20451;-75
2022/05/10 04:29:18;;;;;;;23.13;14.67;;;;;;;37.88;46.14;100902.44;5011983;28;20472;-74
2022/05/10 04:31:44;;;;;;;23.73;16.40;;;;;;;38.05;46.02;100912.59;5011843;28;20480;-74
2022/05/10 04:34:10;;;;;;;22.50;15.83;;;;;;;38.14;45.48;100909.97;5013214;28;20440;-73
2022/05/10 04:36:36;;;;;;;20.13;14.30;;;;;;;38.12;45.68;100917.59;5012020;28;20428;-73
2022/05/10 04:39:03;;;;;;;27.30;15.83;;;;;;;38.16;45.44;100924.81;5011744;28;20412;-73
2022/05/10 04:41:33;;;;;;;18.93;14.80;;;;;;;37.96;45.93;100924.47;5011919;28;20420;-73
2022/05/10 04:44:08;;;;;;;25.87;15.97;;;;;;;37.94;45.87;100924.78;5011482;28;20507;-75
2022/05/10 04:46:37;;;;;;;23.70;17.27;;;;;;;37.91;46.20;100928.09;5010953;28;20428;-73
2022/05/10 04:49:05;;;;;;;29.27;16.97;;;;;;;37.76;46.56;100936.53;5012979;28;20411;-73
2022/05/10 04:51:32;;;;;;;27.57;19.30;;;;;;;37.82;46.07;100941.56;5011231;28;21007;-74
2022/05/10 04:53:59;;;;;;;24.50;16.93;;;;;;;37.94;46.12;100948.34;5011514;28;20447;-72
2022/05/10 04:56:25;;;;;;;21.40;15.00;;;;;;;37.75;46.46;100953.84;5011468;28;20421;-74
2022/05/10 04:58:54;;;;;;;33.60;15.83;;;;;;;37.87;45.97;100965.00;5011425;28;20503;-74
2022/05/10 05:01:25;;;;;;;28.30;14.27;;;;;;;37.84;46.07;100971.03;5011422;28;20401;-72
2022/05/10 05:03:55;;;;;;;25.80;16.40;;;;;;;37.71;46.42;100972.63;5011324;28;20463;-74
2022/05/10 05:06:24;;;;;;;33.27;19.97;;;;;;;37.72;46.27;100968.81;5011312;28;20806;-74
2022/05/10 05:08:50;;;;;;;26.87;17.40;;;;;;;37.77;46.42;100981.44;5010885;28;20431;-72
2022/05/10 05:11:16;;;;;;;33.43;24.40;;;;;;;37.55;46.50;100984.84;5010997;28;20445;-72
2022/05/10 05:13:43;;;;;;;37.80;28.13;;;;;;;37.32;47.31;100986.59;5011172;28;20408;-74
2022/05/10 05:16:09;;;;;;;40.20;29.97;;;;;;;37.46;47.16;101000.97;5011490;28;20924;-74
2022/05/10 05:18:35;;;;;;;37.77;26.70;;;;;;;37.51;46.90;101006.31;5010441;28;20431;-73
2022/05/10 05:21:01;;;;;;;36.20;25.37;;;;;;;37.46;46.73;101017.22;5010398;28;20420;-75
2022/05/10 05:23:27;;;;;;;34.77;23.17;;;;;;;37.54;46.53;101019.22;5010465;28;20822;-73
2022/05/10 05:25:55;;;;;;;31.10;20.20;;;;;;;37.24;46.93;101027.88;5011756;28;20420;-74
2022/05/10 05:28:22;;;;;;;28.87;20.13;;;;;;;37.07;47.74;101031.91;5010651;28;20800;-73
2022/05/10 05:30:49;;;;;;;38.20;21.00;;;;;;;37.34;46.73;101044.75;5009311;28;20512;-73
2022/05/10 05:33:16;;;;;;;35.97;21.43;;;;;;;37.38;46.51;101047.66;5009912;28;20480;-73
2022/05/10 05:35:42;;;;;;;32.70;20.87;;;;;;;37.05;47.78;101044.94;5009497;28;20431;-72
2022/05/10 05:38:08;;;;;;;28.97;19.60;;;;;;;37.13;47.54;101046.16;5008714;28;20949;-73
2022/05/10 05:40:36;;;;;;;38.27;22.07;;;;;;;37.48;46.69;101052.91;5011586;28;20908;-73
2022/05/10 05:43:03;;;;;;;26.43;19.90;;;;;;;37.49;46.52;101054.50;5006954;28;20445;-74
2022/05/10 05:45:29;;;;;;;44.37;23.43;;;;;;;37.40;46.60;101050.09;4991138;28;20960;-77
2022/05/10 05:47:55;;;;;;;27.30;18.00;;;;;;;37.26;46.82;101047.28;4991187;28;20429;-70
2022/05/10 05:50:24;;;;;;;31.40;17.93;;;;;;;36.90;47.54;101050.59;5007499;28;20432;-72
2022/05/10 05:52:51;;;;;;;33.53;20.73;;;;;;;36.81;47.77;101052.31;4990925;28;20461;-70
2022/05/10 05:55:18;;;;;;;37.00;19.73;;;;;;;36.55;48.17;101050.00;4991203;28;20425;-71
2022/05/10 05:57:45;;;;;;;34.43;18.90;;;;;;;36.91;47.87;101046.81;4991936;28;20512;-70
2022/05/10 06:00:18;;;;;;;35.40;19.80;;;;;;;36.63;47.89;101043.13;4996478;28;20409;-71
2022/05/10 06:02:45;;;;;;;25.80;21.70;;;;;;;36.65;48.31;101038.25;4994990;28;20516;-71
2022/05/10 06:05:11;;;;;;;30.63;22.57;;;;;;;36.42;48.83;101037.22;5003556;28;20482;-70
2022/05/10 06:07:38;;;;;;;30.80;21.53;;;;;;;36.38;48.78;101046.16;5014686;28;20971;-69
2022/05/10 06:10:05;;;;;;;27.33;18.63;;;;;;;36.40;48.40;101058.34;5012670;28;20425;-69
2022/05/10 06:12:31;;;;;;;25.47;15.10;;;;;;;36.48;47.91;101064.97;5013593;28;20460;-70
2022/05/10 06:14:59;;;;;;;28.10;18.47;;;;;;;36.46;47.88;101073.38;5013201;28;20433;-71
2022/05/10 06:17:25;;;;;;;25.33;18.77;;;;;;;36.36;47.76;101067.28;5029888;28;20428;-69
2022/05/10 06:19:51;;;;;;;29.40;17.10;;;;;;;35.89;49.06;101056.19;5013842;28;20432;-68
2022/05/10 06:22:17;;;;;;;37.17;18.93;;;;;;;35.77;49.03;101044.97;5030241;28;20424;-69
2022/05/10 06:24:43;;;;;;;23.53;17.80;;;;;;;35.64;48.87;101056.47;5013604;28;20432;-70
2022/05/10 06:27:16;;;;;;;29.87;16.90;;;;;;;35.53;49.21;101066.53;5014357;28;20483;-70
2022/05/10 06:29:43;;;;;;;28.73;18.13;;;;;;;35.88;48.07;101075.38;5030378;28;20471;-81
2022/05/10 06:32:11;;;;;;;27.87;18.80;;;;;;;36.01;47.54;101080.91;5015132;28;20503;-71
2022/05/10 06:34:41;;;;;;;34.53;18.10;;;;;;;36.49;47.38;101083.59;5015281;28;20832;-70
2022/05/10 06:39:51;;;;;;;39.53;19.03;;;;;;;36.92;45.49;101124.13;5015178;28;20804;-70
2022/05/10 06:42:24;;;;;;;29.50;19.17;;;;;;;37.17;44.71;101138.34;5013853;28;20503;-69
2022/05/10 06:44:50;;;;;;;30.17;17.23;;;;;;;37.20;43.81;101132.34;5013824;28;20421;-71
2022/05/10 06:47:16;;;;;;;35.27;24.80;;;;;;;37.06;43.94;101132.28;5029755;23;21034;-70
2022/05/10 06:49:42;;;;;;;41.67;29.93;;;;;;;37.19;44.10;101144.25;5014981;28;20440;-69
2022/05/10 06:52:09;;;;;;;33.57;20.50;;;;;;;37.09;44.40;101150.66;5013240;28;20479;-69
2022/05/10 06:54:35;;;;;;;33.73;22.73;;;;;;;37.09;44.23;101147.94;5012331;28;20428;-69
2022/05/10 06:57:01;;;;;;;29.17;18.30;;;;;;;36.87;44.32;101143.09;5012838;28;20458;-71
2022/05/10 06:59:27;;;;;;;33.27;20.93;;;;;;;36.79;44.52;101138.34;5014143;28;20445;-68
2022/05/10 07:01:53;;;;;;;32.80;18.70;;;;;;;36.67;44.90;101127.94;5012796;28;20785;-69
2022/05/10 07:04:19;;;;;;;36.27;20.80;;;;;;;36.19;45.90;101122.56;5012929;28;20417;-69
2022/05/10 07:06:46;;;;;;;34.67;22.00;;;;;;;36.24;45.99;101124.41;5013363;28;20486;-68
2022/05/10 07:09:12;;;;;;;40.37;21.10;;;;;;;35.95;46.52;101132.56;5012604;28;20413;-68
2022/05/10 07:11:38;;;;;;;43.70;23.57;;;;;;;36.05;46.08;101149.47;5013193;28;20573;-70
2022/05/10 07:14:04;;;;;;;49.20;21.90;;;;;;;36.07;46.45;101162.66;5010809;28;20511;-68
2022/05/10 07:16:30;;;;;;;46.30;20.60;;;;;;;35.86;46.63;101162.03;5013027;28;20689;-68
2022/05/10 07:18:57;;;;;;;26.97;18.47;;;;;;;35.97;46.15;101150.09;5011503;28;20464;-68
2022/05/10 07:21:23;;;;;;;25.63;20.80;;;;;;;35.76;46.17;101146.75;4995384;28;20937;-71
2022/05/10 07:23:49;;;;;;;40.90;23.60;;;;;;;35.91;46.29;101140.44;5012811;28;20432;-69
2022/05/10 07:26:15;;;;;;;43.90;24.80;;;;;;;36.19;45.50;101151.47;5011175;28;20809;-68
2022/05/10 07:28:41;;;;;;;31.07;19.17;;;;;;;35.91;45.79;101148.53;5011149;28;20420;-68
2022/05/10 07:31:07;;;;;;;41.63;19.23;;;;;;;35.66;46.62;101170.31;5012255;28;20803;-70
2022/05/10 07:33:33;;;;;;;41.63;21.17;;;;;;;36.09;45.59;101179.38;5013651;28;20433;-68
2022/05/10 07:38:43;;;;;;;38.63;19.53;;;;;;;36.35;44.64;101188.03;5013463;28;20396;-68
2022/05/10 07:41:11;;;;;;;29.47;17.80;;;;;;;36.13;44.67;101171.53;5012216;28;20510;-69
2022/05/10 07:43:39;;;;;;;33.03;20.17;;;;;;;36.45;44.11;101165.50;5002201;28;20503;-68
2022/05/10 07:46:06;;;;;;;36.47;20.33;;;;;;;36.09;44.66;101167.78;4992520;28;20448;-68
2022/05/10 07:48:33;;;;;;;44.00;19.17;;;;;;;35.87;44.74;101174.44;4993556;28;20964;-68
2022/05/10 07:51:01;;;;;;;38.00;20.00;;;;;;;35.97;45.00;101170.84;4992402;28;20480;-69
2022/05/10 07:53:28;;;;;;;36.53;21.10;;;;;;;36.10;44.32;101182.91;4999264;28;20473;-68
2022/05/10 07:55:54;;;;;;;37.60;24.40;;;;;;;36.17;43.52;101205.78;4991477;28;20523;-68
2022/05/10 07:58:20;;;;;;;36.93;22.03;;;;;;;36.09;44.10;101227.19;5007843;28;20520;-68
2022/05/10 08:00:46;;;;;;;35.10;21.00;;;;;;;36.36;43.35;101249.06;5007562;28;20421;-68
2022/05/10 08:03:15;;;;;;;35.50;21.13;;;;;;;36.48;42.95;101267.63;4992707;28;20422;-68
2022/05/10 08:05:41;;;;;;;30.33;19.63;;;;;;;36.58;42.72;101262.09;5008213;28;20428;-69
2022/05/10 08:08:08;;;;;;;49.40;23.47;;;;;;;36.61;42.92;101258.03;4991996;28;20445;-68
2022/05/10 08:10:35;;;;;;;51.57;21.47;;;;;;;36.24;43.02;101241.34;5008499;28;20425;-68
2022/05/10 08:13:02;;;;;;;36.73;18.80;;;;;;;35.94;43.81;101238.94;4991611;28;20591;-71
2022/05/10 08:15:28;;;;;;;36.27;22.50;;;;;;;35.48;44.97;101231.97;5007871;28;20796;-70
2022/05/10 08:17:54;;;;;;;31.67;22.07;;;;;;;35.84;44.23;101222.78;5008184;28;20449;-68
2022/05/10 08:20:20;;;;;;;42.10;22.33;;;;;;;35.66;44.09;101224.28;4993086;28;20428;-68
2022/05/10 08:22:46;;;;;;;38.07;24.60;;;;;;;35.72;44.10;101232.03;5006917;28;20538;-68
2022/05/10 08:25:13;;;;;;;33.53;21.37;;;;;;;35.92;43.77;101241.94;5007272;28;20483;-68
2022/05/10 08:27:39;;;;;;;36.03;21.17;;;;;;;35.93;43.50;101242.72;4991376;28;20949;-68
2022/05/10 08:30:06;;;;;;;37.03;21.70;;;;;;;36.28;42.45;101258.63;4992215;28;20429;-68
2022/05/10 08:32:32;;;;;;;39.93;21.30;;;;;;;36.69;41.85;101265.50;5018559;28;20488;-68
2022/05/10 08:34:59;;;;;;;34.77;22.77;;;;;;;36.91;41.51;101273.94;4992377;28;20418;-68
2022/05/10 08:37:25;;;;;;;35.97;23.27;;;;;;;36.93;41.39;101276.34;4992641;28;20452;-68
2022/05/10 08:39:51;;;;;;;39.57;22.43;;;;;;;36.95;41.97;101268.72;5007434;28;20503;-69
2022/05/10 08:42:28;;;;;;;37.67;22.00;;;;;;;36.91;41.10;101267.72;5007473;28;20434;-70
2022/05/10 08:44:58;;;;;;;42.30;20.20;;;;;;;36.64;42.10;101255.53;4991262;28;20433;-68
2022/05/10 08:47:25;;;;;;;43.23;22.90;;;;;;;36.64;41.82;101255.53;4992795;28;20477;-68
2022/05/10 08:49:53;;;;;;;33.70;21.40;;;;;;;36.66;42.15;101261.47;5007926;28;20425;-68
2022/05/10 08:52:24;;;;;;;40.63;23.10;;;;;;;36.81;41.62;101261.28;4991702;28;20472;-69
2022/05/10 08:54:50;;;;;;;31.63;20.83;;;;;;;36.76;41.36;101255.94;4992832;28;20429;-70
2022/05/10 08:57:28;;;;;;;40.40;22.07;;;;;;;36.26;41.93;101251.88;5007394;28;20437;-70
2022/05/10 09:00:18;;;;;;;40.73;22.53;;;;;;;36.00;43.22;101254.81;5013270;28;20447;-70
2022/05/10 09:02:59;;;;;;;39.37;18.20;;;;;;;36.48;41.88;101248.72;5007396;28;20479;-72
2022/05/10 09:05:39;;;;;;;44.40;23.37;;;;;;;36.65;41.23;101242.84;4991539;28;20511;-71
2022/05/10 09:08:31;;;;;;;49.27;22.90;;;;;;;36.74;41.45;101230.31;4991090;28;20881;-71
2022/05/10 09:11:07;;;;;;;44.97;21.83;;;;;;;36.54;41.74;101226.75;5007828;28;20437;-70
2022/05/10 09:13:34;;;;;;;28.83;20.43;;;;;;;36.47;41.72;101231.69;4992818;28;20822;-70
2022/05/10 09:16:04;;;;;;;41.00;26.80;;;;;;;36.44;41.84;101218.75;4991458;28;20508;-71
2022/05/10 09:18:37;;;;;;;54.00;34.97;;;;;;;36.33;42.54;101219.91;4992825;28;20456;-72
2022/05/10 09:21:17;;;;;;;63.73;44.47;;;;;;;36.69;41.54;101206.03;4991264;28;20432;-71
2022/05/10 09:23:53;;;;;;;46.27;33.70;;;;;;;36.67;41.70;101208.22;4991165;28;20421;-70
2022/05/10 09:26:23;;;;;;;43.57;25.23;;;;;;;36.87;41.20;101210.69;4992941;28;20440;-71
2022/05/10 09:29:13;;;;;;;38.47;23.93;;;;;;;37.16;40.65;101212.47;4992706;28;20441;-72
2022/05/10 09:37:27;;;;;;;31.93;19.27;;;;;;;37.18;40.18;101194.06;5012445;28;20400;-72
2022/05/10 09:39:56;;;;;;;34.33;20.77;;;;;;;37.25;40.13;101186.38;5010796;28;20790;-71
2022/05/10 09:42:41;;;;;;;36.27;17.60;;;;;;;37.11;40.26;101179.00;5010717;28;20423;-71
2022/05/10 09:45:26;;;;;;;28.87;20.60;;;;;;;37.26;40.66;101174.44;5010845;28;20860;-72
2022/05/10 09:48:08;;;;;;;37.97;18.23;;;;;;;37.38;40.43;101175.66;5011856;28;20482;-72
2022/05/10 09:50:39;;;;;;;32.03;19.90;;;;;;;37.35;39.83;101170.81;5010672;28;20463;-70
2022/05/10 09:53:25;;;;;;;48.03;19.80;;;;;;;37.04;40.27;101177.75;5010718;28;20456;-74
2022/05/10 09:56:12;;;;;;;29.50;19.97;;;;;;;37.08;41.02;101176.09;5010529;28;20465;-73
2022/05/10 09:58:54;;;;;;;42.67;26.33;;;;;;;36.95;40.78;101177.59;5010675;28;20435;-73
2022/05/10 10:01:44;;;;;;;40.60;30.00;;;;;;;37.07;41.17;101179.88;5010679;28;20434;-72
2022/05/10 10:04:27;;;;;;;42.33;23.83;;;;;;;37.09;41.27;101186.59;5011837;28;20455;-72
2022/05/10 10:07:22;;;;;;;33.77;23.93;;;;;;;37.25;40.78;101192.56;5011819;28;20398;-71
2022/05/10 10:09:51;;;;;;;39.10;23.80;;;;;;;37.42;40.59;101196.69;5010499;28;20504;-71
2022/05/10 10:12:36;;;;;;;48.60;23.60;;;;;;;37.59;40.78;101195.06;5010466;28;20471;-72
2022/05/10 10:15:20;;;;;;;36.80;23.53;;;;;;;37.68;40.52;101206.00;5010446;28;20424;-69
2022/05/10 10:18:06;;;;;;;42.90;23.37;;;;;;;37.76;40.31;101196.44;5010561;28;20431;-71
2022/05/10 10:20:56;;;;;;;32.13;20.97;;;;;;;37.86;39.98;101196.25;5010554;28;20515;-71
2022/05/10 10:23:28;;;;;;;39.23;20.27;;;;;;;37.89;39.45;101191.06;5010454;28;20424;-72
2022/05/10 10:26:00;;;;;;;34.90;22.30;;;;;;;37.88;39.92;101196.78;5010457;28;20503;-71
2022/05/10 10:28:38;;;;;;;55.50;24.13;;;;;;;37.69;39.82;101190.56;5010150;28;20439;-71
2022/05/10 10:31:13;;;;;;;37.80;21.03;;;;;;;37.25;41.01;101187.16;5010403;28;20428;-72
2022/05/10 10:34:01;;;;;;;34.80;23.10;;;;;;;37.40;41.16;101183.47;5005660;28;20508;-72
2022/05/10 10:36:40;;;;;;;50.63;28.10;;;;;;;37.33;41.39;101177.59;4989578;28;20483;-72
2022/05/10 10:39:28;;;;;;;45.87;26.70;;;;;;;37.41;41.38;101166.13;5006465;28;20494;-72
2022/05/10 10:42:13;;;;;;;55.87;26.90;;;;;;;37.36;41.45;101160.81;5005936;28;20425;-72
2022/05/10 10:44:45;;;;;;;46.33;28.40;;;;;;;37.17;41.74;101160.78;4990424;28;20448;-72
2022/05/10 10:47:22;;;;;;;42.00;26.13;;;;;;;37.33;41.37;101158.66;4994910;28;20926;-71
2022/05/10 10:49:53;;;;;;;36.53;24.10;;;;;;;37.43;41.64;101150.41;4993779;28;20822;-71
2022/05/10 10:52:21;;;;;;;32.70;21.47;;;;;;;37.46;41.29;101147.13;5009150;28;20547;-70
2022/05/10 10:54:48;;;;;;;46.07;26.10;;;;;;;37.55;40.76;101142.63;4993172;28;20491;-70
2022/05/10 10:57:41;;;;;;;42.47;27.47;;;;;;;37.68;41.11;101132.91;5009598;28;20460;-70
2022/05/10 11:00:16;;;;;;;37.10;25.13;;;;;;;37.39;41.75;101133.16;4994021;28;20915;-70
2022/05/10 11:03:01;;;;;;;46.43;26.40;;;;;;;37.41;41.65;101122.03;5009545;28;20423;-71
2022/05/10 11:05:37;;;;;;;41.83;26.70;;;;;;;37.51;41.55;101116.47;5001884;28;20436;-70
2022/05/10 11:08:28;;;;;;;42.20;22.00;;;;;;;37.48;42.01;101112.44;5015104;28;20436;-71
2022/05/10 11:10:54;;;;;;;34.87;20.23;;;;;;;37.62;41.33;101115.16;5010282;28;20412;-70
2022/05/10 11:13:54;;;;;;;30.57;18.10;;;;;;;37.83;40.86;101096.69;5012781;28;20459;-70
2022/05/10 11:16:46;;;;;;;24.63;15.80;;;;;;;37.43;41.66;101096.28;5010533;28;20515;-70
2022/05/10 11:19:19;;;;;;;21.70;14.77;;;;;;;37.73;41.39;101089.50;5012490;28;20408;-70
2022/05/10 11:22:02;;;;;;;22.37;16.73;;;;;;;37.67;41.35;101089.91;5012893;28;20428;-72
2022/05/10 11:25:22;;;;;;;27.40;18.17;;;;;;;37.85;41.51;101081.72;5011469;28;20421;-71
2022/05/10 11:28:01;;;;;;;41.27;19.63;;;;;;;37.84;41.30;101072.00;4984239;28;20807;-71
2022/05/10 11:31:04;;;;;;;41.80;18.43;;;;;;;37.81;41.53;101074.50;5027717;28;20936;-70
2022/05/10 11:33:53;;;;;;;36.83;20.00;;;;;;;37.70;41.66;101063.06;5013008;28;20510;-71
2022/05/10 11:36:44;;;;;;;29.83;16.73;;;;;;;37.97;41.15;101056.88;5010359;28;20417;-70
2022/05/10 11:39:36;;;;;;;31.90;21.00;;;;;;;38.01;41.32;101068.72;5012480;28;20456;-70
2022/05/10 11:42:24;;;;;;;32.83;20.30;;;;;;;38.04;41.14;101059.97;4999080;28;20425;-70
2022/05/10 11:45:08;;;;;;;28.67;16.60;;;;;;;38.35;41.43;101062.06;5011125;28;20456;-71
2022/05/10 11:47:56;;;;;;;23.80;18.20;;;;;;;38.53;40.89;101057.59;5011744;28;20551;-73